sensor_id;sensor_type;location;lat;lon;timestamp;P1;durP1;ratioP1;P2;durP2;ratioP2
79052;SDS011;68451;49.510;6.026;2024-02-14T00:01:25;2.72;;;1.70;;
79052;SDS011;68451;49.510;6.026;2024-02-14T00:05:29;3.78;;;1.40;;
79052;SDS011;68451;49.510;6.026;2024-02-14T00:09:32;2.83;;;1.58;;
79052;SDS011;68451;49.510;6.026;2024-02-14T00:11:34;4.18;;;1.70;;
79052;SDS011;68451;49.510;6.026;2024-02-14T00:15:38;2.63;;;1.83;;
79052;SDS011;68451;49.510;6.026;2024-02-14T00:17:40;4.23;;;1.70;;
79052;SDS011;68451;49.510;6.026;2024-02-14T00:19:42;4.40;;;1.50;;
79052;SDS011;68451;49.510;6.026;2024-02-14T00:23:45;2.60;;;1.85;;
79052;SDS011;68451;49.510;6.026;2024-02-14T00:25:47;2.83;;;1.90;;
79052;SDS011;68451;49.510;6.026;2024-02-14T00:27:49;3.95;;;1.70;;
79052;SDS011;68451;49.510;6.026;2024-02-14T00:29:51;4.77;;;1.60;;
79052;SDS011;68451;49.510;6.026;2024-02-14T00:33:55;1.90;;;1.52;;
79052;SDS011;68451;49.510;6.026;2024-02-14T00:35:57;6.37;;;1.80;;
79052;SDS011;68451;49.510;6.026;2024-02-14T00:40:01;3.15;;;1.83;;
79052;SDS011;68451;49.510;6.026;2024-02-14T00:42:03;3.50;;;1.80;;
79052;SDS011;68451;49.510;6.026;2024-02-14T00:44:05;2.80;;;2.20;;
79052;SDS011;68451;49.510;6.026;2024-02-14T00:48:08;2.53;;;1.42;;
79052;SDS011;68451;49.510;6.026;2024-02-14T00:50:10;2.97;;;1.77;;
79052;SDS011;68451;49.510;6.026;2024-02-14T00:52:15;3.87;;;1.87;;
79052;SDS011;68451;49.510;6.026;2024-02-14T00:54:18;3.13;;;1.80;;
79052;SDS011;68451;49.510;6.026;2024-02-14T00:56:20;3.87;;;2.17;;
79052;SDS011;68451;49.510;6.026;2024-02-14T00:58:24;3.67;;;2.17;;
79052;SDS011;68451;49.510;6.026;2024-02-14T01:00:27;3.93;;;1.93;;
79052;SDS011;68451;49.510;6.026;2024-02-14T01:04:31;2.40;;;1.53;;
79052;SDS011;68451;49.510;6.026;2024-02-14T01:08:35;3.40;;;1.77;;
79052;SDS011;68451;49.510;6.026;2024-02-14T01:10:37;4.40;;;1.70;;
79052;SDS011;68451;49.510;6.026;2024-02-14T01:12:39;4.18;;;2.10;;
79052;SDS011;68451;49.510;6.026;2024-02-14T01:16:46;2.50;;;1.70;;
79052;SDS011;68451;49.510;6.026;2024-02-14T01:18:48;3.13;;;1.60;;
79052;SDS011;68451;49.510;6.026;2024-02-14T01:20:50;3.57;;;1.60;;
79052;SDS011;68451;49.510;6.026;2024-02-14T01:24:54;5.93;;;2.35;;
79052;SDS011;68451;49.510;6.026;2024-02-14T01:28:57;3.95;;;2.10;;
79052;SDS011;68451;49.510;6.026;2024-02-14T01:31:02;3.07;;;1.90;;
79052;SDS011;68451;49.510;6.026;2024-02-14T01:35:06;3.15;;;1.83;;
79052;SDS011;68451;49.510;6.026;2024-02-14T01:37:08;3.27;;;2.67;;
79052;SDS011;68451;49.510;6.026;2024-02-14T01:39:11;2.77;;;2.23;;
79052;SDS011;68451;49.510;6.026;2024-02-14T01:41:13;2.90;;;2.00;;
79052;SDS011;68451;49.510;6.026;2024-02-14T01:45:16;8.48;;;2.60;;
79052;SDS011;68451;49.510;6.026;2024-02-14T01:49:20;3.40;;;2.10;;
79052;SDS011;68451;49.510;6.026;2024-02-14T01:51:24;3.00;;;1.70;;
79052;SDS011;68451;49.510;6.026;2024-02-14T01:53:26;4.40;;;2.10;;
79052;SDS011;68451;49.510;6.026;2024-02-14T01:55:31;4.03;;;2.33;;
79052;SDS011;68451;49.510;6.026;2024-02-14T01:57:34;3.17;;;1.93;;
79052;SDS011;68451;49.510;6.026;2024-02-14T01:59:36;5.63;;;2.53;;
79052;SDS011;68451;49.510;6.026;2024-02-14T02:03:40;3.63;;;2.10;;
79052;SDS011;68451;49.510;6.026;2024-02-14T02:05:43;8.40;;;2.27;;
79052;SDS011;68451;49.510;6.026;2024-02-14T02:07:45;4.90;;;2.10;;
79052;SDS011;68451;49.510;6.026;2024-02-14T02:09:50;2.73;;;1.87;;
79052;SDS011;68451;49.510;6.026;2024-02-14T02:14:02;5.17;;;2.20;;
79052;SDS011;68451;49.510;6.026;2024-02-14T02:16:05;4.37;;;2.07;;
79052;SDS011;68451;49.510;6.026;2024-02-14T02:18:07;2.20;;;1.63;;
79052;SDS011;68451;49.510;6.026;2024-02-14T02:20:09;7.30;;;3.03;;
79052;SDS011;68451;49.510;6.026;2024-02-14T02:22:11;5.73;;;1.90;;
79052;SDS011;68451;49.510;6.026;2024-02-14T02:26:15;4.80;;;1.80;;
79052;SDS011;68451;49.510;6.026;2024-02-14T02:28:17;4.03;;;2.10;;
79052;SDS011;68451;49.510;6.026;2024-02-14T02:32:20;7.75;;;2.35;;
79052;SDS011;68451;49.510;6.026;2024-02-14T02:36:24;2.85;;;1.98;;
79052;SDS011;68451;49.510;6.026;2024-02-14T02:38:26;3.53;;;1.97;;
79052;SDS011;68451;49.510;6.026;2024-02-14T02:42:30;4.10;;;2.40;;
79052;SDS011;68451;49.510;6.026;2024-02-14T02:46:34;5.50;;;2.17;;
79052;SDS011;68451;49.510;6.026;2024-02-14T02:48:36;3.90;;;2.07;;
79052;SDS011;68451;49.510;6.026;2024-02-14T02:50:38;3.47;;;2.10;;
79052;SDS011;68451;49.510;6.026;2024-02-14T02:54:43;5.97;;;2.60;;
79052;SDS011;68451;49.510;6.026;2024-02-14T02:56:45;3.43;;;2.40;;
79052;SDS011;68451;49.510;6.026;2024-02-14T03:00:50;6.93;;;2.23;;
79052;SDS011;68451;49.510;6.026;2024-02-14T03:02:52;7.27;;;2.60;;
79052;SDS011;68451;49.510;6.026;2024-02-14T03:06:55;3.25;;;2.25;;
79052;SDS011;68451;49.510;6.026;2024-02-14T03:11:02;4.25;;;2.88;;
79052;SDS011;68451;49.510;6.026;2024-02-14T03:13:07;4.83;;;2.43;;
79052;SDS011;68451;49.510;6.026;2024-02-14T03:15:15;2.93;;;1.90;;
79052;SDS011;68451;49.510;6.026;2024-02-14T03:17:18;4.13;;;2.20;;
79052;SDS011;68451;49.510;6.026;2024-02-14T03:19:20;3.60;;;2.28;;
79052;SDS011;68451;49.510;6.026;2024-02-14T03:21:23;4.60;;;2.17;;
79052;SDS011;68451;49.510;6.026;2024-02-14T03:25:27;3.20;;;1.90;;
79052;SDS011;68451;49.510;6.026;2024-02-14T03:27:29;3.13;;;1.85;;
79052;SDS011;68451;49.510;6.026;2024-02-14T03:29:32;2.53;;;1.67;;
79052;SDS011;68451;49.510;6.026;2024-02-14T03:31:37;5.03;;;2.20;;
79052;SDS011;68451;49.510;6.026;2024-02-14T03:33:39;2.30;;;1.50;;
79052;SDS011;68451;49.510;6.026;2024-02-14T03:35:41;2.23;;;1.37;;
79052;SDS011;68451;49.510;6.026;2024-02-14T03:37:45;3.33;;;1.63;;
79052;SDS011;68451;49.510;6.026;2024-02-14T03:39:50;3.07;;;1.50;;
79052;SDS011;68451;49.510;6.026;2024-02-14T03:41:52;1.75;;;1.50;;
79052;SDS011;68451;49.510;6.026;2024-02-14T03:43:55;3.77;;;1.80;;
79052;SDS011;68451;49.510;6.026;2024-02-14T03:46:01;3.30;;;1.93;;
79052;SDS011;68451;49.510;6.026;2024-02-14T03:50:06;3.50;;;1.77;;
79052;SDS011;68451;49.510;6.026;2024-02-14T03:52:09;4.97;;;1.87;;
79052;SDS011;68451;49.510;6.026;2024-02-14T03:54:11;2.90;;;1.97;;
79052;SDS011;68451;49.510;6.026;2024-02-14T03:56:14;6.37;;;2.20;;
79052;SDS011;68451;49.510;6.026;2024-02-14T03:58:17;5.77;;;2.23;;
79052;SDS011;68451;49.510;6.026;2024-02-14T04:00:24;4.33;;;2.10;;
79052;SDS011;68451;49.510;6.026;2024-02-14T04:02:26;4.60;;;1.90;;
79052;SDS011;68451;49.510;6.026;2024-02-14T04:04:30;3.57;;;2.10;;
79052;SDS011;68451;49.510;6.026;2024-02-14T04:06:32;5.83;;;2.90;;
79052;SDS011;68451;49.510;6.026;2024-02-14T04:08:34;2.80;;;1.80;;
79052;SDS011;68451;49.510;6.026;2024-02-14T04:10:37;5.53;;;2.57;;
79052;SDS011;68451;49.510;6.026;2024-02-14T04:12:39;3.70;;;2.13;;
79052;SDS011;68451;49.510;6.026;2024-02-14T04:14:41;2.93;;;2.13;;
79052;SDS011;68451;49.510;6.026;2024-02-14T04:18:45;2.42;;;2.22;;
79052;SDS011;68451;49.510;6.026;2024-02-14T04:20:47;3.27;;;1.90;;
79052;SDS011;68451;49.510;6.026;2024-02-14T04:22:50;4.07;;;1.70;;
79052;SDS011;68451;49.510;6.026;2024-02-14T04:24:52;2.70;;;1.60;;
79052;SDS011;68451;49.510;6.026;2024-02-14T04:28:57;1.53;;;1.37;;
79052;SDS011;68451;49.510;6.026;2024-02-14T04:30:59;2.67;;;1.55;;
79052;SDS011;68451;49.510;6.026;2024-02-14T04:35:04;2.20;;;1.30;;
79052;SDS011;68451;49.510;6.026;2024-02-14T04:37:06;1.90;;;1.40;;
79052;SDS011;68451;49.510;6.026;2024-02-14T04:39:11;2.87;;;1.70;;
79052;SDS011;68451;49.510;6.026;2024-02-14T04:43:15;3.38;;;1.35;;
79052;SDS011;68451;49.510;6.026;2024-02-14T04:45:18;3.30;;;1.83;;
79052;SDS011;68451;49.510;6.026;2024-02-14T04:51:24;2.33;;;1.38;;
79052;SDS011;68451;49.510;6.026;2024-02-14T04:53:26;2.33;;;1.50;;
79052;SDS011;68451;49.510;6.026;2024-02-14T04:55:29;2.23;;;1.90;;
79052;SDS011;68451;49.510;6.026;2024-02-14T04:57:31;3.53;;;1.70;;
79052;SDS011;68451;49.510;6.026;2024-02-14T04:59:33;2.87;;;1.50;;
79052;SDS011;68451;49.510;6.026;2024-02-14T05:03:59;2.57;;;1.60;;
79052;SDS011;68451;49.510;6.026;2024-02-14T05:06:01;5.07;;;1.70;;
79052;SDS011;68451;49.510;6.026;2024-02-14T05:08:04;3.57;;;1.70;;
79052;SDS011;68451;49.510;6.026;2024-02-14T05:10:07;2.30;;;1.77;;
79052;SDS011;68451;49.510;6.026;2024-02-14T05:12:09;2.97;;;2.10;;
79052;SDS011;68451;49.510;6.026;2024-02-14T05:14:12;9.03;;;3.30;;
79052;SDS011;68451;49.510;6.026;2024-02-14T05:18:19;3.17;;;1.97;;
79052;SDS011;68451;49.510;6.026;2024-02-14T05:20:21;6.80;;;2.57;;
79052;SDS011;68451;49.510;6.026;2024-02-14T05:24:25;4.70;;;3.00;;
79052;SDS011;68451;49.510;6.026;2024-02-14T05:26:30;3.43;;;2.37;;
79052;SDS011;68451;49.510;6.026;2024-02-14T05:30:34;5.40;;;2.60;;
79052;SDS011;68451;49.510;6.026;2024-02-14T05:32:37;2.97;;;2.30;;
79052;SDS011;68451;49.510;6.026;2024-02-14T05:34:41;3.37;;;2.07;;
79052;SDS011;68451;49.510;6.026;2024-02-14T05:36:43;4.87;;;2.60;;
79052;SDS011;68451;49.510;6.026;2024-02-14T05:38:47;3.60;;;2.73;;
79052;SDS011;68451;49.510;6.026;2024-02-14T05:40:51;4.17;;;2.70;;
79052;SDS011;68451;49.510;6.026;2024-02-14T05:44:54;4.20;;;2.83;;
79052;SDS011;68451;49.510;6.026;2024-02-14T05:48:58;3.67;;;2.42;;
79052;SDS011;68451;49.510;6.026;2024-02-14T05:51:00;2.77;;;2.43;;
79052;SDS011;68451;49.510;6.026;2024-02-14T05:59:09;3.25;;;2.95;;
79052;SDS011;68451;49.510;6.026;2024-02-14T06:01:11;2.20;;;1.93;;
79052;SDS011;68451;49.510;6.026;2024-02-14T06:03:13;1.97;;;1.70;;
79052;SDS011;68451;49.510;6.026;2024-02-14T06:09:19;1.98;;;1.63;;
79052;SDS011;68451;49.510;6.026;2024-02-14T06:11:21;1.95;;;1.27;;
79052;SDS011;68451;49.510;6.026;2024-02-14T06:15:24;2.50;;;1.40;;
79052;SDS011;68451;49.510;6.026;2024-02-14T06:17:26;0.93;;;0.90;;
79052;SDS011;68451;49.510;6.026;2024-02-14T06:19:28;2.10;;;1.20;;
79052;SDS011;68451;49.510;6.026;2024-02-14T06:21:30;1.40;;;1.10;;
79052;SDS011;68451;49.510;6.026;2024-02-14T06:23:34;1.93;;;1.20;;
79052;SDS011;68451;49.510;6.026;2024-02-14T06:25:36;1.60;;;1.10;;
79052;SDS011;68451;49.510;6.026;2024-02-14T06:29:45;0.80;;;0.80;;
79052;SDS011;68451;49.510;6.026;2024-02-14T06:31:47;1.00;;;0.80;;
79052;SDS011;68451;49.510;6.026;2024-02-14T06:35:51;2.10;;;1.17;;
79052;SDS011;68451;49.510;6.026;2024-02-14T06:37:53;0.93;;;0.77;;
79052;SDS011;68451;49.510;6.026;2024-02-14T06:40:04;2.10;;;1.30;;
79052;SDS011;68451;49.510;6.026;2024-02-14T06:42:10;1.13;;;0.83;;
79052;SDS011;68451;49.510;6.026;2024-02-14T06:44:12;1.87;;;0.90;;
79052;SDS011;68451;49.510;6.026;2024-02-14T06:48:15;1.08;;;0.77;;
79052;SDS011;68451;49.510;6.026;2024-02-14T06:50:17;1.27;;;0.97;;
79052;SDS011;68451;49.510;6.026;2024-02-14T06:54:21;1.48;;;1.00;;
79052;SDS011;68451;49.510;6.026;2024-02-14T06:58:24;1.83;;;1.02;;
79052;SDS011;68451;49.510;6.026;2024-02-14T07:00:26;1.15;;;0.93;;
79052;SDS011;68451;49.510;6.026;2024-02-14T07:02:30;1.43;;;0.90;;
79052;SDS011;68451;49.510;6.026;2024-02-14T07:04:32;2.13;;;1.37;;
79052;SDS011;68451;49.510;6.026;2024-02-14T07:06:34;2.07;;;1.30;;
79052;SDS011;68451;49.510;6.026;2024-02-14T07:08:36;1.80;;;1.40;;
79052;SDS011;68451;49.510;6.026;2024-02-14T07:10:38;1.70;;;1.40;;
79052;SDS011;68451;49.510;6.026;2024-02-14T07:12:40;1.67;;;1.47;;
79052;SDS011;68451;49.510;6.026;2024-02-14T07:14:43;2.53;;;1.50;;
79052;SDS011;68451;49.510;6.026;2024-02-14T07:16:45;2.50;;;1.80;;
79052;SDS011;68451;49.510;6.026;2024-02-14T07:20:48;4.80;;;1.77;;
79052;SDS011;68451;49.510;6.026;2024-02-14T07:22:50;2.17;;;1.80;;
79052;SDS011;68451;49.510;6.026;2024-02-14T07:24:54;1.93;;;1.30;;
79052;SDS011;68451;49.510;6.026;2024-02-14T07:26:56;1.80;;;1.47;;
79052;SDS011;68451;49.510;6.026;2024-02-14T07:28:58;2.97;;;1.90;;
79052;SDS011;68451;49.510;6.026;2024-02-14T07:33:02;2.33;;;1.70;;
79052;SDS011;68451;49.510;6.026;2024-02-14T07:35:04;2.77;;;2.30;;
79052;SDS011;68451;49.510;6.026;2024-02-14T07:37:07;3.13;;;1.90;;
79052;SDS011;68451;49.510;6.026;2024-02-14T07:39:08;2.43;;;1.93;;
79052;SDS011;68451;49.510;6.026;2024-02-14T07:41:10;3.67;;;2.43;;
79052;SDS011;68451;49.510;6.026;2024-02-14T07:45:14;2.38;;;1.52;;
79052;SDS011;68451;49.510;6.026;2024-02-14T07:47:16;4.03;;;2.40;;
79052;SDS011;68451;49.510;6.026;2024-02-14T07:49:18;3.08;;;2.28;;
79052;SDS011;68451;49.510;6.026;2024-02-14T07:51:20;4.40;;;2.60;;
79052;SDS011;68451;49.510;6.026;2024-02-14T07:55:24;3.63;;;2.45;;
79052;SDS011;68451;49.510;6.026;2024-02-14T07:57:26;4.07;;;2.63;;
79052;SDS011;68451;49.510;6.026;2024-02-14T07:59:29;3.07;;;2.70;;
79052;SDS011;68451;49.510;6.026;2024-02-14T08:01:32;3.50;;;2.80;;
79052;SDS011;68451;49.510;6.026;2024-02-14T08:05:36;3.47;;;2.90;;
79052;SDS011;68451;49.510;6.026;2024-02-14T08:07:37;4.43;;;3.40;;
79052;SDS011;68451;49.510;6.026;2024-02-14T08:11:41;4.03;;;3.08;;
79052;SDS011;68451;49.510;6.026;2024-02-14T08:15:45;4.28;;;3.38;;
79052;SDS011;68451;49.510;6.026;2024-02-14T08:17:47;3.60;;;2.80;;
79052;SDS011;68451;49.510;6.026;2024-02-14T08:19:50;3.83;;;2.80;;
79052;SDS011;68451;49.510;6.026;2024-02-14T08:21:52;3.40;;;2.63;;
79052;SDS011;68451;49.510;6.026;2024-02-14T08:23:59;3.73;;;3.00;;
79052;SDS011;68451;49.510;6.026;2024-02-14T08:26:02;4.57;;;3.40;;
79052;SDS011;68451;49.510;6.026;2024-02-14T08:28:06;4.60;;;3.00;;
79052;SDS011;68451;49.510;6.026;2024-02-14T08:30:09;3.73;;;3.07;;
79052;SDS011;68451;49.510;6.026;2024-02-14T08:32:13;5.07;;;3.03;;
79052;SDS011;68451;49.510;6.026;2024-02-14T08:36:17;5.40;;;3.67;;
79052;SDS011;68451;49.510;6.026;2024-02-14T08:38:21;4.57;;;3.90;;
79052;SDS011;68451;49.510;6.026;2024-02-14T08:42:25;3.35;;;3.05;;
79052;SDS011;68451;49.510;6.026;2024-02-14T08:46:28;22.70;;;4.13;;
79052;SDS011;68451;49.510;6.026;2024-02-14T08:48:31;5.20;;;3.67;;
79052;SDS011;68451;49.510;6.026;2024-02-14T08:50:36;4.43;;;3.67;;
79052;SDS011;68451;49.510;6.026;2024-02-14T08:52:38;4.93;;;3.30;;
79052;SDS011;68451;49.510;6.026;2024-02-14T08:54:41;4.17;;;3.10;;
79052;SDS011;68451;49.510;6.026;2024-02-14T08:58:45;3.58;;;2.67;;
79052;SDS011;68451;49.510;6.026;2024-02-14T09:00:47;3.97;;;3.13;;
79052;SDS011;68451;49.510;6.026;2024-02-14T09:02:56;4.60;;;2.90;;
79052;SDS011;68451;49.510;6.026;2024-02-14T09:04:58;4.30;;;3.20;;
79052;SDS011;68451;49.510;6.026;2024-02-14T09:09:01;3.45;;;2.63;;
79052;SDS011;68451;49.510;6.026;2024-02-14T09:11:03;3.67;;;2.83;;
79052;SDS011;68451;49.510;6.026;2024-02-14T09:13:05;3.07;;;2.73;;
79052;SDS011;68451;49.510;6.026;2024-02-14T09:15:09;4.33;;;3.00;;
79052;SDS011;68451;49.510;6.026;2024-02-14T09:17:11;4.03;;;2.80;;
79052;SDS011;68451;49.510;6.026;2024-02-14T09:19:13;3.23;;;2.67;;
79052;SDS011;68451;49.510;6.026;2024-02-14T09:21:15;2.70;;;2.27;;
79052;SDS011;68451;49.510;6.026;2024-02-14T09:23:19;3.90;;;2.57;;
79052;SDS011;68451;49.510;6.026;2024-02-14T09:25:24;3.83;;;2.33;;
79052;SDS011;68451;49.510;6.026;2024-02-14T09:27:26;3.00;;;2.63;;
79052;SDS011;68451;49.510;6.026;2024-02-14T09:29:28;2.67;;;2.37;;
79052;SDS011;68451;49.510;6.026;2024-02-14T09:31:30;3.87;;;2.37;;
79052;SDS011;68451;49.510;6.026;2024-02-14T09:33:32;3.40;;;2.07;;
79052;SDS011;68451;49.510;6.026;2024-02-14T09:35:35;2.83;;;2.53;;
79052;SDS011;68451;49.510;6.026;2024-02-14T09:37:39;2.00;;;1.70;;
79052;SDS011;68451;49.510;6.026;2024-02-14T09:39:41;2.37;;;1.40;;
79052;SDS011;68451;49.510;6.026;2024-02-14T09:41:46;2.10;;;1.50;;
79052;SDS011;68451;49.510;6.026;2024-02-14T09:43:57;2.38;;;1.35;;
79052;SDS011;68451;49.510;6.026;2024-02-14T09:48:00;2.53;;;1.42;;
79052;SDS011;68451;49.510;6.026;2024-02-14T09:50:04;1.40;;;1.13;;
79052;SDS011;68451;49.510;6.026;2024-02-14T09:52:08;1.43;;;1.33;;
79052;SDS011;68451;49.510;6.026;2024-02-14T09:54:14;1.38;;;1.00;;
79052;SDS011;68451;49.510;6.026;2024-02-14T09:56:18;1.30;;;1.10;;
79052;SDS011;68451;49.510;6.026;2024-02-14T09:58:24;0.80;;;0.73;;
79052;SDS011;68451;49.510;6.026;2024-02-14T10:00:26;1.00;;;0.73;;
79052;SDS011;68451;49.510;6.026;2024-02-14T10:02:32;0.60;;;0.60;;
79052;SDS011;68451;49.510;6.026;2024-02-14T10:04:34;1.15;;;0.82;;
79052;SDS011;68451;49.510;6.026;2024-02-14T10:06:37;2.67;;;0.70;;
79052;SDS011;68451;49.510;6.026;2024-02-14T10:08:40;1.30;;;0.90;;
79052;SDS011;68451;49.510;6.026;2024-02-14T10:10:56;0.98;;;0.73;;
79052;SDS011;68451;49.510;6.026;2024-02-14T10:13:00;1.42;;;0.60;;
79052;SDS011;68451;49.510;6.026;2024-02-14T10:15:04;1.10;;;0.73;;
79052;SDS011;68451;49.510;6.026;2024-02-14T10:17:07;1.43;;;0.70;;
79052;SDS011;68451;49.510;6.026;2024-02-14T10:19:17;0.67;;;0.67;;
79052;SDS011;68451;49.510;6.026;2024-02-14T10:21:20;0.50;;;0.50;;
79052;SDS011;68451;49.510;6.026;2024-02-14T10:23:24;0.75;;;0.60;;
79052;SDS011;68451;49.510;6.026;2024-02-14T10:25:30;0.55;;;0.55;;
79052;SDS011;68451;49.510;6.026;2024-02-14T10:27:38;0.30;;;0.30;;
79052;SDS011;68451;49.510;6.026;2024-02-14T10:29:41;0.43;;;0.20;;
79052;SDS011;68451;49.510;6.026;2024-02-14T10:31:45;0.43;;;0.43;;
79052;SDS011;68451;49.510;6.026;2024-02-14T10:33:47;0.87;;;0.67;;
79052;SDS011;68451;49.510;6.026;2024-02-14T10:35:49;0.55;;;0.52;;
79052;SDS011;68451;49.510;6.026;2024-02-14T10:37:54;0.68;;;0.68;;
79052;SDS011;68451;49.510;6.026;2024-02-14T10:40:02;0.93;;;0.43;;
79052;SDS011;68451;49.510;6.026;2024-02-14T10:42:05;0.60;;;0.50;;
79052;SDS011;68451;49.510;6.026;2024-02-14T10:44:09;0.75;;;0.60;;
79052;SDS011;68451;49.510;6.026;2024-02-14T10:46:15;0.65;;;0.60;;
79052;SDS011;68451;49.510;6.026;2024-02-14T10:48:23;1.38;;;0.65;;
79052;SDS011;68451;49.510;6.026;2024-02-14T10:50:28;0.63;;;0.60;;
79052;SDS011;68451;49.510;6.026;2024-02-14T10:52:34;1.27;;;0.50;;
79052;SDS011;68451;49.510;6.026;2024-02-14T10:54:37;0.60;;;0.60;;
79052;SDS011;68451;49.510;6.026;2024-02-14T10:56:41;0.80;;;0.47;;
79052;SDS011;68451;49.510;6.026;2024-02-14T10:58:46;0.80;;;0.50;;
79052;SDS011;68451;49.510;6.026;2024-02-14T11:00:49;0.70;;;0.63;;
79052;SDS011;68451;49.510;6.026;2024-02-14T11:02:51;1.30;;;0.50;;
79052;SDS011;68451;49.510;6.026;2024-02-14T11:04:54;0.77;;;0.50;;
79052;SDS011;68451;49.510;6.026;2024-02-14T11:06:58;0.43;;;0.32;;
79052;SDS011;68451;49.510;6.026;2024-02-14T11:09:04;0.57;;;0.57;;
79052;SDS011;68451;49.510;6.026;2024-02-14T11:11:12;0.60;;;0.40;;
79052;SDS011;68451;49.510;6.026;2024-02-14T11:13:14;0.50;;;0.45;;
79052;SDS011;68451;49.510;6.026;2024-02-14T11:15:23;0.45;;;0.30;;
79052;SDS011;68451;49.510;6.026;2024-02-14T11:17:32;0.32;;;0.32;;
79052;SDS011;68451;49.510;6.026;2024-02-14T11:19:34;0.30;;;0.30;;
79052;SDS011;68451;49.510;6.026;2024-02-14T11:21:42;0.35;;;0.30;;
79052;SDS011;68451;49.510;6.026;2024-02-14T11:23:54;0.32;;;0.30;;
79052;SDS011;68451;49.510;6.026;2024-02-14T11:26:03;0.30;;;0.30;;
79052;SDS011;68451;49.510;6.026;2024-02-14T11:28:13;0.32;;;0.25;;
79052;SDS011;68451;49.510;6.026;2024-02-14T11:30:26;0.50;;;0.40;;
79052;SDS011;68451;49.510;6.026;2024-02-14T11:32:31;0.43;;;0.43;;
79052;SDS011;68451;49.510;6.026;2024-02-14T11:34:33;0.40;;;0.40;;
79052;SDS011;68451;49.510;6.026;2024-02-14T11:36:41;0.35;;;0.35;;
79052;SDS011;68451;49.510;6.026;2024-02-14T11:38:43;0.57;;;0.50;;
79052;SDS011;68451;49.510;6.026;2024-02-14T11:40:45;0.70;;;0.43;;
79052;SDS011;68451;49.510;6.026;2024-02-14T11:42:47;0.73;;;0.73;;
79052;SDS011;68451;49.510;6.026;2024-02-14T11:44:49;0.85;;;0.70;;
79052;SDS011;68451;49.510;6.026;2024-02-14T11:46:51;2.38;;;0.80;;
79052;SDS011;68451;49.510;6.026;2024-02-14T11:48:53;0.70;;;0.68;;
79052;SDS011;68451;49.510;6.026;2024-02-14T11:50:55;0.70;;;0.60;;
79052;SDS011;68451;49.510;6.026;2024-02-14T11:52:58;0.90;;;0.80;;
79052;SDS011;68451;49.510;6.026;2024-02-14T11:55:00;1.23;;;0.80;;
79052;SDS011;68451;49.510;6.026;2024-02-14T11:57:02;0.70;;;0.70;;
79052;SDS011;68451;49.510;6.026;2024-02-14T11:59:05;0.98;;;0.85;;
79052;SDS011;68451;49.510;6.026;2024-02-14T12:01:09;1.48;;;0.90;;
79052;SDS011;68451;49.510;6.026;2024-02-14T12:03:14;1.20;;;0.70;;
79052;SDS011;68451;49.510;6.026;2024-02-14T12:05:17;1.10;;;0.90;;
79052;SDS011;68451;49.510;6.026;2024-02-14T12:07:19;1.88;;;1.52;;
79052;SDS011;68451;49.510;6.026;2024-02-14T12:09:23;1.45;;;0.70;;
79052;SDS011;68451;49.510;6.026;2024-02-14T12:11:25;2.28;;;1.05;;
79052;SDS011;68451;49.510;6.026;2024-02-14T12:13:27;1.02;;;0.95;;
79052;SDS011;68451;49.510;6.026;2024-02-14T12:15:37;1.30;;;0.80;;
79052;SDS011;68451;49.510;6.026;2024-02-14T12:17:40;0.75;;;0.73;;
79052;SDS011;68451;49.510;6.026;2024-02-14T12:19:43;1.75;;;1.10;;
79052;SDS011;68451;49.510;6.026;2024-02-14T12:21:45;0.93;;;0.80;;
79052;SDS011;68451;49.510;6.026;2024-02-14T12:23:57;0.80;;;0.70;;
79052;SDS011;68451;49.510;6.026;2024-02-14T12:26:03;0.90;;;0.85;;
79052;SDS011;68451;49.510;6.026;2024-02-14T12:28:06;0.75;;;0.70;;
79052;SDS011;68451;49.510;6.026;2024-02-14T12:30:08;1.08;;;0.63;;
79052;SDS011;68451;49.510;6.026;2024-02-14T12:32:11;0.55;;;0.55;;
79052;SDS011;68451;49.510;6.026;2024-02-14T12:34:19;1.20;;;1.10;;
79052;SDS011;68451;49.510;6.026;2024-02-14T12:36:26;0.60;;;0.60;;
79052;SDS011;68451;49.510;6.026;2024-02-14T12:38:29;0.75;;;0.70;;
79052;SDS011;68451;49.510;6.026;2024-02-14T12:40:31;0.82;;;0.82;;
79052;SDS011;68451;49.510;6.026;2024-02-14T12:42:34;0.65;;;0.65;;
79052;SDS011;68451;49.510;6.026;2024-02-14T12:44:37;2.38;;;0.90;;
79052;SDS011;68451;49.510;6.026;2024-02-14T12:46:39;1.35;;;0.65;;
79052;SDS011;68451;49.510;6.026;2024-02-14T12:48:41;0.82;;;0.70;;
79052;SDS011;68451;49.510;6.026;2024-02-14T12:50:43;0.70;;;0.70;;
79052;SDS011;68451;49.510;6.026;2024-02-14T12:52:50;2.38;;;1.00;;
79052;SDS011;68451;49.510;6.026;2024-02-14T12:54:52;0.70;;;0.70;;
79052;SDS011;68451;49.510;6.026;2024-02-14T12:56:54;0.98;;;0.90;;
79052;SDS011;68451;49.510;6.026;2024-02-14T12:58:57;2.38;;;0.80;;
79052;SDS011;68451;49.510;6.026;2024-02-14T13:01:01;0.68;;;0.60;;
79052;SDS011;68451;49.510;6.026;2024-02-14T13:03:06;1.05;;;0.80;;
79052;SDS011;68451;49.510;6.026;2024-02-14T13:05:08;1.00;;;0.80;;
79052;SDS011;68451;49.510;6.026;2024-02-14T13:07:10;0.93;;;0.77;;
79052;SDS011;68451;49.510;6.026;2024-02-14T13:09:12;0.98;;;0.88;;
79052;SDS011;68451;49.510;6.026;2024-02-14T13:11:17;2.72;;;2.08;;
79052;SDS011;68451;49.510;6.026;2024-02-14T13:13:20;3.58;;;2.38;;
79052;SDS011;68451;49.510;6.026;2024-02-14T13:15:22;2.80;;;1.73;;
79052;SDS011;68451;49.510;6.026;2024-02-14T13:17:24;1.67;;;1.58;;
79052;SDS011;68451;49.510;6.026;2024-02-14T13:19:28;2.17;;;1.40;;
79052;SDS011;68451;49.510;6.026;2024-02-14T13:21:30;1.95;;;1.40;;
79052;SDS011;68451;49.510;6.026;2024-02-14T13:23:32;1.83;;;1.65;;
79052;SDS011;68451;49.510;6.026;2024-02-14T13:25:35;1.80;;;1.60;;
79052;SDS011;68451;49.510;6.026;2024-02-14T13:27:37;2.08;;;1.67;;
79052;SDS011;68451;49.510;6.026;2024-02-14T13:29:40;4.60;;;1.98;;
79052;SDS011;68451;49.510;6.026;2024-02-14T13:31:42;2.25;;;1.50;;
79052;SDS011;68451;49.510;6.026;2024-02-14T13:33:44;2.00;;;1.73;;
79052;SDS011;68451;49.510;6.026;2024-02-14T13:35:46;2.42;;;1.98;;
79052;SDS011;68451;49.510;6.026;2024-02-14T13:37:48;3.35;;;2.42;;
79052;SDS011;68451;49.510;6.026;2024-02-14T13:39:50;2.65;;;1.83;;
79052;SDS011;68451;49.510;6.026;2024-02-14T13:41:52;2.28;;;2.00;;
79052;SDS011;68451;49.510;6.026;2024-02-14T13:43:56;1.95;;;1.80;;
79052;SDS011;68451;49.510;6.026;2024-02-14T13:48:02;3.97;;;2.17;;
79052;SDS011;68451;49.510;6.026;2024-02-14T13:50:09;2.95;;;2.33;;
79052;SDS011;68451;49.510;6.026;2024-02-14T13:52:11;3.50;;;3.03;;
79052;SDS011;68451;49.510;6.026;2024-02-14T13:54:13;3.13;;;1.85;;
79052;SDS011;68451;49.510;6.026;2024-02-14T13:56:16;3.00;;;2.38;;
79052;SDS011;68451;49.510;6.026;2024-02-14T13:58:19;2.70;;;2.50;;
79052;SDS011;68451;49.510;6.026;2024-02-14T14:00:21;2.80;;;2.40;;
79052;SDS011;68451;49.510;6.026;2024-02-14T14:02:24;3.75;;;2.92;;
79052;SDS011;68451;49.510;6.026;2024-02-14T14:04:25;3.95;;;3.05;;
79052;SDS011;68451;49.510;6.026;2024-02-14T14:06:28;3.20;;;2.05;;
79052;SDS011;68451;49.510;6.026;2024-02-14T14:08:31;3.38;;;2.25;;
79052;SDS011;68451;49.510;6.026;2024-02-14T14:10:34;3.67;;;2.53;;
79052;SDS011;68451;49.510;6.026;2024-02-14T14:12:36;4.45;;;2.85;;
79052;SDS011;68451;49.510;6.026;2024-02-14T14:14:38;4.32;;;3.60;;
79052;SDS011;68451;49.510;6.026;2024-02-14T14:16:40;4.53;;;3.25;;
79052;SDS011;68451;49.510;6.026;2024-02-14T14:18:43;6.10;;;3.47;;
79052;SDS011;68451;49.510;6.026;2024-02-14T14:20:45;4.13;;;3.35;;
79052;SDS011;68451;49.510;6.026;2024-02-14T14:22:47;3.35;;;2.88;;
79052;SDS011;68451;49.510;6.026;2024-02-14T14:24:49;4.90;;;3.33;;
79052;SDS011;68451;49.510;6.026;2024-02-14T14:26:57;4.20;;;3.10;;
79052;SDS011;68451;49.510;6.026;2024-02-14T14:28:58;5.05;;;3.40;;
79052;SDS011;68451;49.510;6.026;2024-02-14T14:31:00;3.65;;;2.63;;
79052;SDS011;68451;49.510;6.026;2024-02-14T14:33:03;5.65;;;3.65;;
79052;SDS011;68451;49.510;6.026;2024-02-14T14:35:06;6.30;;;3.55;;